Time;durP1;ratioP1;P1;durP2;ratioP2;P2;SDS_P1;SDS_P2;PMS_P1;PMS_P2;Temp;Humidity;BMP_temperature;BMP_pressure;BME280_temperature;BME280_humidity;BME280_pressure;Samples;Min_cycle;Max_cycle;Signal;HPM_P1;HPM_P2
2024/01/14 00:01:19;;;;;;;40.23;15.80;;;0.10;99.90;;;;;;5015962;28;20279;-67
2024/01/14 00:03:45;;;;;;;35.87;16.40;;;0.00;99.90;;;;;;5012470;28;20210;-67
2024/01/14 00:06:10;;;;;;;42.30;17.70;;;0.10;99.90;;;;;;5017355;28;20260;-67
2024/01/14 00:08:36;;;;;;;48.53;18.37;;;0.20;99.90;;;;;;5013908;28;20847;-67
2024/01/14 00:11:02;;;;;;;56.00;21.27;;;0.20;99.90;;;;;;5017038;28;20184;-68
2024/01/14 00:13:28;;;;;;;50.97;21.20;;;0.10;99.90;;;;;;5017093;28;20201;-67
2024/01/14 00:15:53;;;;;;;64.37;22.13;;;0.20;99.90;;;;;;5014438;28;20427;-66
2024/01/14 00:18:19;;;;;;;62.17;24.10;;;0.10;99.90;;;;;;5015996;28;20558;-66
2024/01/14 00:20:44;;;;;;;57.27;22.83;;;0.00;99.90;;;;;;5020963;28;20191;-66
2024/01/14 00:23:10;;;;;;;61.30;25.53;;;-0.10;99.90;;;;;;5014803;28;20207;-67
2024/01/14 00:25:36;;;;;;;52.97;23.27;;;-0.10;99.90;;;;;;5013888;28;20183;-66
2024/01/14 00:28:02;;;;;;;59.03;22.40;;;0.00;99.90;;;;;;5012910;28;20194;-66
2024/01/14 00:30:27;;;;;;;57.43;23.80;;;0.00;99.90;;;;;;5012338;28;20284;-66
2024/01/14 00:32:53;;;;;;;58.13;23.03;;;0.10;99.90;;;;;;5013177;28;21011;-67
2024/01/14 00:35:19;;;;;;;52.07;23.20;;;-0.10;99.90;;;;;;5015331;28;20183;-67
2024/01/14 00:37:44;;;;;;;53.40;20.60;;;-0.30;99.90;;;;;;5014452;28;20176;-67
2024/01/14 00:40:13;;;;;;;55.43;22.70;;;-0.20;99.90;;;;;;5018177;28;20385;-67
2024/01/14 00:42:38;;;;;;;42.60;15.60;;;-0.20;99.90;;;;;;5022005;28;20323;-67
2024/01/14 00:45:04;;;;;;;38.97;16.93;;;-0.20;99.90;;;;;;5021575;28;20567;-67
2024/01/14 00:47:30;;;;;;;54.80;18.03;;;-0.30;99.90;;;;;;5028232;28;20187;-67
2024/01/14 00:49:56;;;;;;;53.37;20.20;;;-0.40;99.90;;;;;;5026228;28;20476;-67
2024/01/14 00:52:22;;;;;;;48.63;18.77;;;-0.40;99.90;;;;;;5023210;28;20649;-67
2024/01/14 00:54:47;;;;;;;50.13;21.07;;;-0.40;99.90;;;;;;5021096;28;20462;-67
2024/01/14 00:57:15;;;;;;;45.30;19.77;;;-0.50;99.90;;;;;;5009898;28;20179;-67
2024/01/14 00:59:40;;;;;;;43.17;18.57;;;-0.50;99.90;;;;;;5018947;28;20198;-67
2024/01/14 01:02:06;;;;;;;59.87;20.07;;;-0.60;99.90;;;;;;5015911;28;20413;-67
2024/01/14 01:04:32;;;;;;;47.90;20.50;;;-0.50;99.90;;;;;;5015167;28;20897;-67
2024/01/14 01:06:57;;;;;;;52.30;21.03;;;-0.60;99.90;;;;;;5016203;28;20191;-68
2024/01/14 01:09:23;;;;;;;43.93;17.20;;;-0.40;99.90;;;;;;5015232;28;20182;-68
2024/01/14 01:11:48;;;;;;;47.67;19.00;;;-0.40;99.90;;;;;;5019409;28;20185;-67
2024/01/14 01:14:15;;;;;;;46.87;21.43;;;-0.50;99.90;;;;;;5017407;28;20226;-68
2024/01/14 01:16:41;;;;;;;46.83;18.47;;;-0.40;99.90;;;;;;5015947;28;20189;-68
2024/01/14 01:19:06;;;;;;;43.70;19.90;;;-0.40;99.90;;;;;;5010706;28;20449;-68
2024/01/14 01:21:32;;;;;;;41.53;18.23;;;-0.40;99.90;;;;;;5012749;28;20438;-67
2024/01/14 01:23:58;;;;;;;47.03;18.10;;;-0.40;99.90;;;;;;5016784;28;20222;-66
2024/01/14 01:26:24;;;;;;;49.10;20.50;;;-0.40;99.90;;;;;;5017904;28;20219;-66
2024/01/14 01:28:50;;;;;;;42.90;18.23;;;-0.30;99.90;;;;;;5008449;28;20442;-67
2024/01/14 01:31:16;;;;;;;39.33;19.70;;;-0.40;99.90;;;;;;5016478;28;20469;-66
2024/01/14 01:33:41;;;;;;;46.17;19.10;;;-0.40;99.90;;;;;;5017329;28;20218;-66
2024/01/14 01:36:07;;;;;;;44.07;18.03;;;-0.50;99.90;;;;;;5012737;28;20417;-66
2024/01/14 01:38:33;;;;;;;42.83;18.80;;;-0.40;99.90;;;;;;5016361;28;20179;-67
2024/01/14 01:40:59;;;;;;;43.07;20.50;;;-0.40;99.90;;;;;;5022942;28;20417;-66
2024/01/14 01:43:24;;;;;;;48.60;19.70;;;-0.40;99.90;;;;;;5015049;28;20469;-68
2024/01/14 01:45:50;;;;;;;46.37;18.40;;;-0.40;99.90;;;;;;5018684;28;20237;-67
2024/01/14 01:48:16;;;;;;;45.50;18.73;;;-0.30;99.90;;;;;;5019033;28;20185;-67
2024/01/14 01:50:43;;;;;;;45.10;18.77;;;-0.30;99.90;;;;;;5012285;28;20434;-67
2024/01/14 01:53:08;;;;;;;39.63;18.27;;;-0.30;99.90;;;;;;5012447;28;20303;-67
2024/01/14 01:55:35;;;;;;;42.57;18.93;;;-0.30;99.90;;;;;;5019760;28;20515;-67
2024/01/14 01:58:01;;;;;;;47.37;19.00;;;-0.30;99.90;;;;;;5015950;28;20620;-67
2024/01/14 02:00:27;;;;;;;43.60;17.87;;;-0.30;99.90;;;;;;5008690;28;20470;-67
2024/01/14 02:02:53;;;;;;;47.83;20.70;;;-0.40;99.90;;;;;;5012679;28;20514;-67
2024/01/14 02:05:21;;;;;;;47.20;19.20;;;-0.50;99.90;;;;;;5015106;28;20413;-67
2024/01/14 02:07:46;;;;;;;43.13;17.87;;;-0.60;99.90;;;;;;5022507;28;20546;-67
2024/01/14 02:10:12;;;;;;;47.23;19.07;;;-0.60;99.90;;;;;;5013408;28;21235;-67
2024/01/14 02:12:37;;;;;;;46.97;16.70;;;-0.50;99.90;;;;;;5015107;28;20614;-67
2024/01/14 02:15:04;;;;;;;37.27;16.17;;;-0.40;99.90;;;;;;5012306;28;20214;-67
2024/01/14 02:17:29;;;;;;;45.77;17.70;;;-0.40;99.90;;;;;;5016874;28;20184;-67
2024/01/14 02:19:55;;;;;;;46.97;17.63;;;-0.50;99.90;;;;;;5013602;28;20841;-67
2024/01/14 02:22:28;;;;;;;44.43;18.60;;;-0.50;99.90;;;;;;5014287;28;20207;-68
2024/01/14 02:24:53;;;;;;;47.60;20.50;;;-0.50;99.90;;;;;;5017631;28;20222;-67
2024/01/14 02:27:19;;;;;;;43.00;20.07;;;-0.30;99.90;;;;;;5011803;28;21277;-68
2024/01/14 02:29:46;;;;;;;55.67;19.93;;;-0.20;99.90;;;;;;5010240;28;20182;-68
2024/01/14 02:32:12;;;;;;;57.33;22.20;;;-0.30;99.90;;;;;;5006651;28;20204;-68
2024/01/14 02:34:37;;;;;;;53.87;22.10;;;-0.20;99.90;;;;;;5016415;28;20446;-68
2024/01/14 02:37:03;;;;;;;49.70;19.43;;;-0.20;99.90;;;;;;5009610;28;20196;-68
2024/01/14 02:39:29;;;;;;;40.97;18.20;;;-0.10;99.90;;;;;;5018087;28;20226;-68
2024/01/14 02:41:55;;;;;;;45.17;18.57;;;-0.20;99.90;;;;;;5017023;28;20189;-67
2024/01/14 02:44:20;;;;;;;45.63;18.77;;;-0.30;99.90;;;;;;5009123;28;20222;-68
2024/01/14 02:46:46;;;;;;;49.63;19.43;;;-0.40;99.90;;;;;;5015257;28;20423;-68
2024/01/14 02:49:12;;;;;;;44.73;18.50;;;-0.60;99.90;;;;;;5014566;28;20188;-67
2024/01/14 02:51:37;;;;;;;54.60;21.07;;;-0.60;99.90;;;;;;5019621;28;20219;-67
2024/01/14 02:54:03;;;;;;;46.13;19.63;;;-0.80;99.90;;;;;;5014139;28;20470;-67
2024/01/14 02:56:29;;;;;;;47.03;20.00;;;-0.80;99.90;;;;;;5017685;28;20184;-68
2024/01/14 02:58:55;;;;;;;48.40;20.20;;;-0.60;99.90;;;;;;5013986;28;20200;-68
2024/01/14 03:01:20;;;;;;;54.70;21.00;;;-0.50;99.90;;;;;;5015348;28;20518;-68
2024/01/14 03:03:47;;;;;;;52.43;20.07;;;-0.50;99.90;;;;;;5014841;28;20553;-67
2024/01/14 03:06:12;;;;;;;55.83;19.50;;;-0.50;99.90;;;;;;5014431;28;20176;-68
2024/01/14 03:08:38;;;;;;;45.47;17.20;;;-0.60;99.90;;;;;;5016192;28;20498;-68
2024/01/14 03:11:04;;;;;;;45.60;19.97;;;-0.50;99.90;;;;;;5019907;28;20196;-68
2024/01/14 03:13:30;;;;;;;48.67;20.53;;;-0.50;99.90;;;;;;5012401;28;20480;-68
2024/01/14 03:15:56;;;;;;;59.23;20.80;;;-0.50;99.90;;;;;;5016017;28;20720;-68
2024/01/14 03:18:22;;;;;;;52.17;19.67;;;-0.50;99.90;;;;;;5014387;28;20425;-67
2024/01/14 03:20:47;;;;;;;56.00;20.13;;;-0.40;99.90;;;;;;5015981;28;20195;-68
2024/01/14 03:23:13;;;;;;;43.23;18.50;;;-0.30;99.90;;;;;;5018890;28;20306;-68
2024/01/14 03:25:39;;;;;;;48.60;17.53;;;-0.30;99.90;;;;;;5025675;28;20191;-68
2024/01/14 03:28:04;;;;;;;53.37;19.30;;;-0.40;99.90;;;;;;5021646;28;20182;-68
2024/01/14 03:30:30;;;;;;;47.13;19.37;;;-0.40;99.90;;;;;;5025351;28;20201;-68
2024/01/14 03:32:55;;;;;;;54.43;21.43;;;-0.40;99.90;;;;;;5028793;28;20294;-68
2024/01/14 03:35:21;;;;;;;60.47;20.67;;;-0.30;99.90;;;;;;5024635;28;20191;-67
2024/01/14 03:37:47;;;;;;;45.10;20.60;;;-0.50;99.90;;;;;;5021527;28;20257;-67
2024/01/14 03:40:12;;;;;;;46.10;17.87;;;-0.40;99.90;;;;;;5017063;28;20190;-67
2024/01/14 03:42:38;;;;;;;44.33;21.20;;;-0.40;99.90;;;;;;5017395;28;20244;-67
2024/01/14 03:45:04;;;;;;;53.00;20.80;;;-0.30;99.90;;;;;;5017297;28;20220;-67
2024/01/14 03:47:30;;;;;;;52.43;19.17;;;-0.30;99.90;;;;;;5018036;28;20536;-67
2024/01/14 03:49:56;;;;;;;54.93;20.37;;;-0.30;99.90;;;;;;5023838;28;20537;-67
2024/01/14 03:52:21;;;;;;;48.00;19.53;;;-0.30;99.90;;;;;;5026888;28;20213;-67
2024/01/14 03:54:47;;;;;;;52.60;22.37;;;-0.30;99.90;;;;;;5021014;28;20211;-67
2024/01/14 03:57:12;;;;;;;49.13;18.67;;;-0.40;99.90;;;;;;5019214;28;20196;-67
2024/01/14 03:59:38;;;;;;;50.03;22.20;;;-0.30;99.90;;;;;;5017228;28;20199;-68
2024/01/14 04:02:04;;;;;;;46.83;20.20;;;-0.30;99.90;;;;;;5020704;28;20216;-67
2024/01/14 04:04:30;;;;;;;46.67;20.20;;;-0.20;99.90;;;;;;5021005;28;20341;-67
2024/01/14 04:06:55;;;;;;;56.00;20.80;;;-0.30;99.90;;;;;;5018593;28;20444;-67
2024/01/14 04:09:21;;;;;;;54.60;20.87;;;-0.30;99.90;;;;;;5012830;28;20234;-67
2024/01/14 04:11:46;;;;;;;43.00;18.30;;;-0.20;99.90;;;;;;5020323;28;20278;-65
2024/01/14 04:14:12;;;;;;;42.27;20.30;;;-0.40;99.90;;;;;;5012346;28;20273;-65
2024/01/14 04:16:39;;;;;;;48.23;20.07;;;-0.30;99.90;;;;;;5018300;28;20195;-65
2024/01/14 04:19:05;;;;;;;38.97;18.00;;;-0.20;99.90;;;;;;5015314;28;20438;-67
2024/01/14 04:21:31;;;;;;;47.47;18.47;;;-0.20;99.90;;;;;;5018812;28;20896;-67
2024/01/14 04:23:58;;;;;;;43.70;19.03;;;-0.40;99.90;;;;;;5017428;28;20291;-67
2024/01/14 04:26:24;;;;;;;45.80;17.97;;;-0.40;99.90;;;;;;5012847;28;20190;-67
2024/01/14 04:28:50;;;;;;;49.20;20.03;;;-0.30;99.90;;;;;;5017459;28;20794;-67
2024/01/14 04:31:16;;;;;;;46.20;18.93;;;-0.20;99.90;;;;;;5021060;28;20198;-67
2024/01/14 04:33:41;;;;;;;50.90;20.27;;;-0.20;99.90;;;;;;5023554;28;21219;-67
2024/01/14 04:36:07;;;;;;;50.87;21.40;;;-0.20;99.90;;;;;;5012214;28;20178;-67
2024/01/14 04:38:32;;;;;;;48.93;18.93;;;-0.30;99.90;;;;;;5006288;28;20219;-67
2024/01/14 04:40:58;;;;;;;45.07;19.23;;;-0.20;99.90;;;;;;5012437;28;20196;-67
2024/01/14 04:43:24;;;;;;;47.30;20.43;;;-0.10;99.90;;;;;;5018483;28;20217;-68
2024/01/14 04:45:49;;;;;;;46.43;19.17;;;-0.20;99.90;;;;;;5026549;28;20667;-67
2024/01/14 04:48:15;;;;;;;48.67;20.50;;;-0.20;99.90;;;;;;5016196;28;20188;-67
2024/01/14 04:50:41;;;;;;;44.07;19.67;;;-0.30;99.90;;;;;;5017370;28;20192;-67
2024/01/14 04:53:07;;;;;;;40.40;15.87;;;-0.20;99.90;;;;;;5015297;28;20187;-67
2024/01/14 04:55:32;;;;;;;52.87;19.93;;;-0.40;99.90;;;;;;5014170;28;20427;-67
2024/01/14 04:57:58;;;;;;;59.30;22.40;;;-0.40;99.90;;;;;;5013790;28;20426;-67
2024/01/14 05:00:24;;;;;;;37.40;17.13;;;-0.50;99.90;;;;;;5013729;28;20189;-67
2024/01/14 05:02:49;;;;;;;52.90;21.33;;;-0.40;99.90;;;;;;5022244;28;20418;-67
2024/01/14 05:05:15;;;;;;;48.40;18.30;;;-0.40;99.90;;;;;;5013537;28;20584;-66
2024/01/14 05:07:41;;;;;;;57.33;19.33;;;-0.30;99.90;;;;;;5018950;28;20202;-66
2024/01/14 05:10:07;;;;;;;44.43;18.33;;;-0.30;99.90;;;;;;5017448;28;20641;-65
2024/01/14 05:12:33;;;;;;;39.87;17.97;;;-0.40;99.90;;;;;;5025623;28;20188;-67
2024/01/14 05:14:59;;;;;;;50.13;19.60;;;-0.30;99.90;;;;;;5019152;28;20497;-68
2024/01/14 05:17:24;;;;;;;50.00;20.93;;;-0.30;99.90;;;;;;5014076;28;20215;-67
2024/01/14 05:19:51;;;;;;;44.93;19.17;;;-0.30;99.90;;;;;;5008663;28;20193;-67
2024/01/14 05:22:17;;;;;;;46.10;17.37;;;-0.40;99.90;;;;;;5019236;28;20651;-67
2024/01/14 05:24:43;;;;;;;59.93;20.53;;;-0.40;99.90;;;;;;5018268;28;20985;-67
2024/01/14 05:27:11;;;;;;;52.93;18.90;;;-0.40;99.90;;;;;;5015461;28;20437;-67
2024/01/14 05:29:43;;;;;;;48.87;19.50;;;-0.50;99.90;;;;;;5019386;28;20442;-67
2024/01/14 05:32:14;;;;;;;47.67;20.17;;;-0.40;99.90;;;;;;5014834;28;20429;-67
2024/01/14 05:34:40;;;;;;;60.23;20.27;;;-0.40;99.90;;;;;;5020494;28;20445;-67
2024/01/14 05:37:06;;;;;;;56.40;19.60;;;-0.30;99.90;;;;;;5021452;28;20420;-68
2024/01/14 05:39:35;;;;;;;44.33;20.37;;;-0.40;99.90;;;;;;5016862;28;20446;-67
2024/01/14 05:42:02;;;;;;;53.93;20.20;;;-0.30;99.90;;;;;;5014569;28;20518;-67
2024/01/14 05:44:27;;;;;;;57.50;21.27;;;-0.40;99.90;;;;;;5014093;28;20481;-67
2024/01/14 05:46:54;;;;;;;58.10;22.80;;;-0.40;99.90;;;;;;5018279;28;20457;-66
2024/01/14 05:49:20;;;;;;;54.80;20.93;;;-0.40;99.90;;;;;;5018086;28;20219;-66
2024/01/14 05:51:46;;;;;;;64.63;24.03;;;-0.40;99.90;;;;;;5015146;28;20517;-66
2024/01/14 05:54:12;;;;;;;55.33;23.60;;;-0.30;99.90;;;;;;5012649;28;20901;-67
2024/01/14 05:56:37;;;;;;;59.13;22.33;;;-0.20;99.90;;;;;;5014055;28;20429;-67
2024/01/14 05:59:03;;;;;;;66.17;23.10;;;-0.40;99.90;;;;;;5010016;28;20474;-67
2024/01/14 06:01:29;;;;;;;52.90;23.80;;;-0.40;99.90;;;;;;5010053;28;20176;-67
2024/01/14 06:03:56;;;;;;;51.47;21.30;;;-0.40;99.90;;;;;;5013638;28;20219;-67
2024/01/14 06:06:21;;;;;;;59.67;22.13;;;-0.40;99.90;;;;;;5014103;28;20513;-67
2024/01/14 06:08:47;;;;;;;55.97;22.37;;;-0.70;99.90;;;;;;5010853;28;20787;-67
2024/01/14 06:11:13;;;;;;;55.23;23.90;;;-0.70;99.90;;;;;;5017322;28;20223;-67
2024/01/14 06:13:44;;;;;;;52.63;24.13;;;-0.50;99.90;;;;;;5015236;28;20258;-67
2024/01/14 06:16:09;;;;;;;53.47;21.83;;;-0.60;99.90;;;;;;5021565;28;20192;-67
2024/01/14 06:18:36;;;;;;;50.37;22.37;;;-0.70;99.90;;;;;;5021115;28;20435;-68
2024/01/14 06:21:02;;;;;;;61.10;24.77;;;-0.60;99.90;;;;;;5017365;28;20190;-67
2024/01/14 06:23:28;;;;;;;56.87;21.20;;;-0.60;99.90;;;;;;5024265;28;20472;-68
2024/01/14 06:25:54;;;;;;;55.87;22.77;;;-0.50;99.90;;;;;;5029023;28;20416;-68
2024/01/14 06:28:20;;;;;;;61.50;22.70;;;-0.70;99.90;;;;;;5030769;28;20423;-67
2024/01/14 06:30:46;;;;;;;58.60;22.07;;;-0.60;99.90;;;;;;5025628;28;20194;-67
2024/01/14 06:33:12;;;;;;;60.43;23.30;;;-0.60;99.90;;;;;;5026152;28;20469;-67
2024/01/14 06:35:38;;;;;;;56.30;21.30;;;-0.60;99.90;;;;;;5014607;28;20778;-67
2024/01/14 06:38:04;;;;;;;55.33;20.87;;;-0.60;99.90;;;;;;5022382;28;20449;-67
2024/01/14 06:40:30;;;;;;;56.37;22.07;;;-0.70;99.90;;;;;;5030805;28;20186;-67
2024/01/14 06:42:55;;;;;;;59.70;21.00;;;-0.60;99.90;;;;;;5020604;28;20271;-68
2024/01/14 06:45:21;;;;;;;59.93;23.57;;;-0.60;99.90;;;;;;5015585;28;20472;-68
2024/01/14 06:47:47;;;;;;;56.20;20.87;;;-0.70;99.90;;;;;;5016383;28;20188;-68
2024/01/14 06:50:13;;;;;;;48.23;20.10;;;-0.60;99.90;;;;;;5015767;28;20695;-68
2024/01/14 06:52:39;;;;;;;58.23;22.13;;;-0.70;99.90;;;;;;5013161;28;20214;-68
2024/01/14 06:55:05;;;;;;;56.50;21.77;;;-0.70;99.90;;;;;;5019039;28;20466;-68
2024/01/14 06:57:32;;;;;;;55.00;21.93;;;-0.60;99.90;;;;;;5013316;28;20836;-67
2024/01/14 07:00:04;;;;;;;52.20;21.97;;;-0.70;99.90;;;;;;5020061;28;20512;-66
2024/01/14 07:02:30;;;;;;;45.60;18.57;;;-0.70;99.90;;;;;;5017585;28;20421;-67
2024/01/14 07:04:55;;;;;;;50.40;21.70;;;-0.60;99.90;;;;;;5017027;28;20822;-67
2024/01/14 07:07:21;;;;;;;49.77;20.23;;;-0.70;99.90;;;;;;5020477;28;20436;-66
2024/01/14 07:09:47;;;;;;;56.93;20.83;;;-0.80;99.90;;;;;;5016207;28;20183;-66
2024/01/14 07:12:13;;;;;;;49.73;19.73;;;-0.80;99.90;;;;;;5024057;28;20448;-66
2024/01/14 07:14:38;;;;;;;54.40;22.80;;;-0.80;99.90;;;;;;5022482;28;20284;-66
2024/01/14 07:17:04;;;;;;;58.13;22.20;;;-0.90;99.90;;;;;;5020044;28;20196;-66
2024/01/14 07:19:29;;;;;;;48.67;21.80;;;-0.90;99.90;;;;;;5021537;28;20186;-66
2024/01/14 07:21:56;;;;;;;45.50;21.77;;;-0.80;99.90;;;;;;5023115;28;20189;-66
2024/01/14 07:24:22;;;;;;;60.20;23.93;;;-0.70;99.90;;;;;;5023128;28;20703;-66
2024/01/14 07:26:47;;;;;;;62.67;21.30;;;-0.90;99.90;;;;;;5022587;28;20495;-66
2024/01/14 07:29:13;;;;;;;49.27;20.37;;;-0.80;99.90;;;;;;5023585;28;20912;-66
2024/01/14 07:31:39;;;;;;;58.00;23.60;;;-0.70;99.90;;;;;;5018613;28;20676;-66
2024/01/14 07:34:04;;;;;;;63.87;23.63;;;-0.80;99.90;;;;;;5023995;28;20261;-68
2024/01/14 07:36:30;;;;;;;59.47;20.70;;;-0.80;99.90;;;;;;5024109;28;20277;-67
2024/01/14 07:38:58;;;;;;;57.00;20.30;;;-0.90;99.90;;;;;;5024068;28;20246;-67
2024/01/14 07:41:24;;;;;;;62.03;24.80;;;-0.80;99.90;;;;;;5016613;28;20588;-67
2024/01/14 07:43:50;;;;;;;49.73;20.10;;;-0.90;99.90;;;;;;5022589;28;20486;-67
2024/01/14 07:46:15;;;;;;;57.87;23.47;;;-1.00;99.90;;;;;;5018667;28;20971;-67
2024/01/14 07:48:42;;;;;;;54.70;22.20;;;-0.90;99.90;;;;;;5017398;28;20183;-67
2024/01/14 07:51:07;;;;;;;52.37;22.77;;;-0.80;99.90;;;;;;5016847;28;20183;-68
2024/01/14 07:53:33;;;;;;;62.13;22.77;;;-0.70;99.90;;;;;;5021954;28;20486;-67
2024/01/14 07:56:00;;;;;;;51.27;21.80;;;-0.70;99.90;;;;;;5021893;28;20213;-67
2024/01/14 07:58:26;;;;;;;48.43;21.70;;;-0.70;99.90;;;;;;5024281;28;20215;-67
2024/01/14 08:00:52;;;;;;;47.53;19.60;;;-0.80;99.90;;;;;;5015320;28;20532;-67
2024/01/14 08:03:17;;;;;;;53.93;21.23;;;-0.70;99.90;;;;;;5020896;28;20280;-67
2024/01/14 08:05:43;;;;;;;48.67;20.67;;;-0.80;99.90;;;;;;5019277;28;20454;-67
2024/01/14 08:08:08;;;;;;;52.00;21.50;;;-0.80;99.90;;;;;;5027733;28;20310;-68
2024/01/14 08:10:35;;;;;;;47.07;19.33;;;-0.80;99.90;;;;;;5011916;28;20593;-67
2024/01/14 08:13:00;;;;;;;57.00;24.13;;;-0.80;99.90;;;;;;5013515;28;20568;-67
2024/01/14 08:15:26;;;;;;;52.57;21.17;;;-0.70;99.90;;;;;;5019418;28;20421;-68
2024/01/14 08:17:52;;;;;;;53.87;19.53;;;-0.80;99.90;;;;;;5016900;28;20650;-68
2024/01/14 08:20:17;;;;;;;47.80;19.80;;;-0.90;99.90;;;;;;5012682;28;20194;-67
2024/01/14 08:22:43;;;;;;;52.93;20.13;;;-0.90;99.90;;;;;;5012089;28;20219;-67
2024/01/14 08:25:10;;;;;;;55.03;21.53;;;-0.70;99.90;;;;;;5015663;28;20223;-67
2024/01/14 08:27:36;;;;;;;57.97;20.77;;;-0.80;99.90;;;;;;5015560;28;20191;-67
2024/01/14 08:30:03;;;;;;;56.00;21.30;;;-0.70;99.90;;;;;;5013729;28;20459;-68
2024/01/14 08:32:30;;;;;;;45.87;21.40;;;-0.80;99.90;;;;;;5014075;28;20453;-68
2024/01/14 08:34:55;;;;;;;56.00;23.17;;;-0.70;99.90;;;;;;5010031;28;20440;-67
2024/01/14 08:37:21;;;;;;;57.47;22.47;;;-0.70;99.90;;;;;;5014722;28;20433;-66
2024/01/14 08:39:48;;;;;;;51.57;21.13;;;-0.70;99.90;;;;;;5012598;28;20565;-67
2024/01/14 08:42:14;;;;;;;56.50;21.77;;;-0.80;99.90;;;;;;5019443;28;20200;-67
2024/01/14 08:44:39;;;;;;;58.70;22.73;;;-0.70;99.90;;;;;;5017504;28;20472;-67
2024/01/14 08:47:05;;;;;;;54.80;20.73;;;-0.70;99.90;;;;;;5018834;28;20191;-67
2024/01/14 08:49:30;;;;;;;48.20;22.10;;;-0.60;99.90;;;;;;5016327;28;20184;-67
2024/01/14 08:51:56;;;;;;;51.63;22.03;;;-0.60;99.90;;;;;;5022399;28;20764;-67
2024/01/14 08:54:25;;;;;;;54.03;21.33;;;-0.60;99.90;;;;;;5014079;28;20211;-66
2024/01/14 08:56:50;;;;;;;52.03;21.20;;;-0.40;99.90;;;;;;5023549;28;20906;-66
2024/01/14 08:59:16;;;;;;;54.17;23.30;;;-0.30;99.90;;;;;;5016269;28;20506;-65
2024/01/14 09:01:41;;;;;;;48.20;20.90;;;-0.30;99.90;;;;;;5024991;28;20190;-66
2024/01/14 09:04:07;;;;;;;55.43;21.70;;;-0.30;99.90;;;;;;5015947;28;20217;-66
2024/01/14 09:06:36;;;;;;;44.50;19.87;;;-0.30;99.90;;;;;;5022480;28;20616;-66
2024/01/14 09:09:02;;;;;;;45.37;20.10;;;-0.40;99.90;;;;;;5017451;28;20921;-67
2024/01/14 09:11:27;;;;;;;49.57;20.00;;;-0.40;99.90;;;;;;5019765;28;20501;-66
2024/01/14 09:13:53;;;;;;;34.47;16.37;;;-0.40;99.90;;;;;;5016336;28;20298;-67
2024/01/14 09:16:19;;;;;;;47.77;20.67;;;-0.50;99.90;;;;;;5017235;28;20577;-67
2024/01/14 09:18:44;;;;;;;48.30;20.27;;;-0.50;99.90;;;;;;5015328;28;20181;-68
2024/01/14 09:21:10;;;;;;;47.47;20.00;;;-0.50;99.90;;;;;;5013333;28;20563;-68
2024/01/14 09:23:35;;;;;;;47.07;17.80;;;-0.70;99.90;;;;;;5014282;28;20656;-67
2024/01/14 09:26:01;;;;;;;49.33;19.57;;;-0.70;99.90;;;;;;5015451;28;20672;-66
2024/01/14 09:28:26;;;;;;;51.70;20.33;;;-0.60;99.90;;;;;;5013915;28;20191;-67
2024/01/14 09:30:53;;;;;;;51.07;20.33;;;-0.60;99.90;;;;;;5015985;28;20191;-67
2024/01/14 09:33:19;;;;;;;47.37;19.83;;;-0.50;99.90;;;;;;5024902;28;20588;-67
2024/01/14 09:35:44;;;;;;;40.90;18.27;;;-0.50;99.90;;;;;;5013953;28;20427;-68
2024/01/14 09:38:10;;;;;;;54.53;21.70;;;-0.40;99.90;;;;;;5025693;28;20188;-67
2024/01/14 09:40:36;;;;;;;53.63;22.00;;;-0.60;99.90;;;;;;5016728;28;20195;-67
2024/01/14 09:43:09;;;;;;;47.87;21.30;;;-0.50;99.90;;;;;;5017056;28;20464;-68
2024/01/14 09:45:35;;;;;;;50.33;21.70;;;-0.40;99.90;;;;;;5019120;28;20951;-67
2024/01/14 09:48:02;;;;;;;52.07;20.40;;;-0.60;99.90;;;;;;5013814;28;20928;-66
2024/01/14 09:50:31;;;;;;;49.47;18.90;;;-0.40;99.90;;;;;;5018931;28;20513;-66
2024/01/14 09:52:58;;;;;;;58.03;17.63;;;-0.30;99.90;;;;;;5014418;28;20433;-67
2024/01/14 09:55:27;;;;;;;39.67;17.00;;;-0.20;99.90;;;;;;5022460;28;20426;-67
2024/01/14 09:57:54;;;;;;;44.60;18.33;;;-0.20;99.90;;;;;;5016564;28;20441;-67
2024/01/14 10:00:22;;;;;;;46.90;16.20;;;-0.30;99.90;;;;;;5025721;28;20456;-67
2024/01/14 10:02:48;;;;;;;52.90;21.23;;;-0.30;99.90;;;;;;5003831;28;20488;-67
2024/01/14 10:05:15;;;;;;;53.97;20.00;;;-0.20;99.90;;;;;;5011916;28;20599;-67
2024/01/14 10:07:43;;;;;;;60.83;23.00;;;-0.30;99.90;;;;;;5012956;28;20772;-67
2024/01/14 10:10:09;;;;;;;53.97;20.53;;;-0.30;99.90;;;;;;5019349;28;20441;-68
2024/01/14 10:12:35;;;;;;;54.07;20.73;;;-0.30;99.90;;;;;;5020750;28;20499;-67
2024/01/14 10:15:02;;;;;;;51.90;20.27;;;-0.20;99.90;;;;;;5013585;28;20466;-67
2024/01/14 10:17:27;;;;;;;43.40;19.47;;;-0.10;99.90;;;;;;5014042;28;20869;-66
2024/01/14 10:19:54;;;;;;;46.47;15.20;;;-0.20;99.90;;;;;;5011929;28;20543;-66
2024/01/14 10:22:23;;;;;;;45.87;19.73;;;-0.20;99.90;;;;;;5019924;28;20545;-68
2024/01/14 10:24:55;;;;;;;62.27;19.90;;;-0.30;99.90;;;;;;5004556;28;20995;-68
2024/01/14 10:27:22;;;;;;;52.93;21.77;;;-0.40;99.90;;;;;;5005867;28;20433;-70
2024/01/14 10:29:49;;;;;;;51.17;21.87;;;-0.40;99.90;;;;;;5013034;28;20553;-73
2024/01/14 10:32:15;;;;;;;47.77;19.73;;;-0.50;99.90;;;;;;5013310;28;20847;-68
2024/01/14 10:34:41;;;;;;;50.50;20.60;;;-0.50;99.90;;;;;;5013141;28;20466;-68
2024/01/14 10:37:07;;;;;;;48.13;19.57;;;-0.40;99.90;;;;;;5020143;28;20494;-67
2024/01/14 10:39:34;;;;;;;44.93;20.43;;;-0.40;99.90;;;;;;5015169;28;20429;-67
2024/01/14 10:42:01;;;;;;;48.43;18.70;;;-0.40;99.90;;;;;;5017232;28;20472;-68
2024/01/14 10:44:30;;;;;;;50.47;20.83;;;-0.30;99.90;;;;;;5018384;28;21163;-67
2024/01/14 10:47:01;;;;;;;52.83;20.67;;;-0.20;99.90;;;;;;5017325;28;20457;-67
2024/01/14 10:49:27;;;;;;;60.10;21.63;;;-0.20;99.90;;;;;;5014038;28;20438;-67
2024/01/14 10:52:08;;;;;;;54.13;21.90;;;-0.20;99.90;;;;;;5018316;28;20521;-67
2024/01/14 10:54:39;;;;;;;48.40;21.27;;;-0.30;99.90;;;;;;5004013;28;20222;-67
2024/01/14 10:57:26;;;;;;;57.07;23.80;;;-0.30;99.90;;;;;;5018712;28;20876;-68
2024/01/14 11:00:00;;;;;;;56.10;22.13;;;-0.40;99.90;;;;;;5015855;28;20416;-67
2024/01/14 11:02:29;;;;;;;52.10;24.27;;;-0.30;99.90;;;;;;5015989;28;20429;-67
2024/01/14 11:04:55;;;;;;;61.83;23.33;;;-0.30;99.90;;;;;;5013471;28;20473;-67
2024/01/14 11:07:24;;;;;;;53.37;22.27;;;-0.30;99.90;;;;;;5012926;28;20446;-67
2024/01/14 11:09:52;;;;;;;61.43;23.50;;;-0.30;99.90;;;;;;5015201;28;20560;-67
2024/01/14 11:12:41;;;;;;;58.17;23.80;;;-0.30;99.90;;;;;;5020660;28;20414;-67
2024/01/14 11:15:15;;;;;;;56.50;22.30;;;-0.20;99.90;;;;;;5018993;28;20545;-67
2024/01/14 11:18:09;;;;;;;52.03;21.57;;;-0.20;99.90;;;;;;5023849;28;20420;-67
2024/01/14 11:20:38;;;;;;;51.87;23.00;;;-0.30;99.90;;;;;;5020104;28;20434;-67
2024/01/14 11:23:05;;;;;;;62.17;24.53;;;-0.30;99.90;;;;;;5023673;28;20784;-67
2024/01/14 11:25:32;;;;;;;57.73;23.13;;;-0.30;99.90;;;;;;5022270;28;20464;-68
2024/01/14 11:27:57;;;;;;;51.80;24.43;;;-0.30;99.90;;;;;;5021920;28;20503;-67
2024/01/14 11:30:49;;;;;;;55.30;22.80;;;-0.40;99.90;;;;;;5027358;28;20517;-69
2024/01/14 11:33:46;;;;;;;70.57;26.80;;;-0.30;99.90;;;;;;5014039;28;20230;-66
2024/01/14 11:36:12;;;;;;;67.60;25.27;;;-0.30;99.90;;;;;;5019698;28;20438;-68
2024/01/14 11:38:44;;;;;;;54.47;23.83;;;-0.20;99.90;;;;;;5015651;28;20422;-68
2024/01/14 11:41:42;;;;;;;55.20;25.40;;;0.00;99.90;;;;;;5015361;28;20488;-66
2024/01/14 11:44:14;;;;;;;54.47;21.90;;;0.00;99.90;;;;;;5006995;28;20481;-66
2024/01/14 11:46:47;;;;;;;43.87;21.67;;;0.00;99.90;;;;;;5019842;28;20487;-67
2024/01/14 11:49:26;;;;;;;50.33;23.83;;;0.00;99.90;;;;;;5019288;28;20449;-66
2024/01/14 11:51:59;;;;;;;49.50;21.53;;;-0.10;99.90;;;;;;5017312;28;20426;-66
2024/01/14 11:54:25;;;;;;;51.60;22.10;;;-0.10;99.90;;;;;;5021374;28;20911;-66
2024/01/14 11:56:54;;;;;;;64.00;26.27;;;-0.10;99.90;;;;;;5017959;28;20422;-66
2024/01/14 11:59:20;;;;;;;45.80;21.40;;;0.00;99.90;;;;;;5015256;28;20454;-67
2024/01/14 12:01:46;;;;;;;45.77;21.80;;;-0.10;99.90;;;;;;5021147;28;20520;-67
2024/01/14 12:04:12;;;;;;;58.83;22.20;;;-0.10;99.90;;;;;;5020636;28;20242;-68
2024/01/14 12:06:46;;;;;;;51.40;22.40;;;-0.10;99.90;;;;;;5029430;28;20453;-67
2024/01/14 12:09:15;;;;;;;53.20;20.87;;;-0.10;99.90;;;;;;5018302;28;20223;-67
2024/01/14 12:11:42;;;;;;;54.40;23.50;;;0.00;99.90;;;;;;5018129;28;20869;-68
2024/01/14 12:14:09;;;;;;;46.03;21.20;;;0.10;99.90;;;;;;5013072;28;20434;-67
2024/01/14 12:16:35;;;;;;;53.30;22.20;;;0.20;99.90;;;;;;5016723;28;20440;-67
2024/01/14 12:19:16;;;;;;;53.60;22.57;;;0.20;99.90;;;;;;5014124;28;20452;-67
2024/01/14 12:21:42;;;;;;;62.17;22.60;;;0.20;99.90;;;;;;5016525;28;20430;-67
2024/01/14 12:24:08;;;;;;;52.17;17.90;;;0.00;99.90;;;;;;5017155;28;20551;-67
2024/01/14 12:26:33;;;;;;;64.70;27.07;;;0.10;99.90;;;;;;5012854;28;20745;-67